LUALURAY CAVERNS
METARs for airports near LUA, sorted by distance:
N 0 nm 902' KLUA 142315Z 00000KT 10SM 34/17 A2998
NE 19 nm 703' KFRR 142315Z 18005KT SCT100 32/18 A2996
SW 28 nm 1165' KVBW 142315Z 29006KT 10SM SCT095 33/16 A3000
SW 30 nm 1201' KSHD 142315Z 25007KT 10SM CLR 34/16 A3003
E 31 nm 315' KCJR 142315Z 17003KT 10SM CLR 34/18 A2996
S 31 nm 640' KCHO 142253Z 16003KT 10SM SCT100 BKN110 34/18 A2997
SE 33 nm 464' KOMH 142315Z 00000KT 10SM CLR 32/21 A2998
NE 33 nm 726' KOKV 142315Z 15006KT 10SM OVC090 32/17 A2996
SE 34 nm 454' KGVE 142315Z 20003KT 10SM SCT095 32/23 A2997
E 37 nm 336' KHWY 142315Z 16004KT 10SM CLR 33/18 A2996
E 46 nm 192' KHEF 142256Z 17007KT 10SM CLR 33/22 A2995
SE 46 nm 493' KLKU 142315Z 17004KT 10SM CLR 31/22 A2999
NE 50 nm 564' KMRB 142253Z 28008KT 10SM SCT110 35/13 A2993
NE 50 nm 389' KJYO 142315Z 21009KT 10SM CLR 35/21 A2996
E 51 nm 312' KIAD 142252Z 20008KT 10SM FEW090 FEW250 34/18 A2994
E 51 nm 219' KRMN 142315Z 20005KT 10SM CLR 34/17 A2994
SE 54 nm 85' KEZF 142315Z 00000KT 10SM CLR 33/22 A2994
E 56 nm 10' KNYG 142256Z 5SM CLR 34/21 A2995
N 58 nm 775' KCBE 142305Z 24009KT 10SM CLR 34/13 A3002
E 61 nm 73' KDAA 142255Z 15005KT 10SM CLR 35/19 A2992
W 64 nm 1987' KEKN 142251Z 27007KT 10SM CLR 31/17 A3009
NE 69 nm 308' KFDK 142247Z 18005KT 10SM CLR 36/17 A2994
NE 69 nm 538' KGAI 142256Z 20006KT 10SM CLR A2997
E 69 nm 14' KDCA 142252Z 21009KT 10SM FEW080 FEW250 36/16 A2993
NE 72 nm 703' KHGR 142253Z 16005KT 10SM CLR 35/18 A2995
SW 76 nm 3792' KHSP 142315Z 27008KT 250V310 10SM 28/16 A3022
E 76 nm 48' KCGS 142305Z 15007KT 10SM CLR 33/22 A2995
SE 76 nm 206' KOFP 142254Z 22005KT 10SM CLR 35/21 A2998
E 77 nm 279' KADW 142255Z 13007KT 10SM CLR 32/23 A2993
S 78 nm 415' KFVX 142315Z 20004KT 10SM CLR 31/22 A2998
E 85 nm 150' KFME 142309Z 14004KT 10SM CLR 30/22 A2998
N 85 nm 1161' KHMZ 142255Z 28010KT 10SM CLR 33/11 A2999
S 87 nm 938' KLYH 142254Z 22006KT 10SM SCT090 34/17 A3002
NW 88 nm 1243' KMGW 142253Z VRB04KT 10SM CLR 33/15 A3002
SE 88 nm 236' KFCI 142256Z 20004KT 10SM CLR 33/23 A2999
NW 89 nm 1223' KCKB 142253Z 28005KT 10SM CLR 33/18 A3002
SE 89 nm 167' KRIC 142254Z 20007KT 10SM FEW060 34/22 A2998
NE 89 nm 789' KDMW 142305Z 21003KT 10SM CLR 36/17 A2997
SE 89 nm 135' KXSA 142315Z 16003KT 10SM CLR 33/25 A2998
E 90 nm 143' KBWI 142254Z 16007KT 10SM FEW065 FEW250 32/22 A2994
NW 94 nm 1264' KVVS 142255Z 24011KT 10SM SCT075 32/16 A3002
N 98 nm 1503' KAOO 142253Z 28005KT 10SM OVC100 31/14 A3001
S 99 nm 437' KBKT 142255Z 19004KT 10SM CLR 33/23 A3000
TAFs for airports near LUA, sorted by distance:
S 31 nm 640' KCHO TAF
  AMD KCHO 142008Z 1420/1518 16008G16KT P6SM FEW250
  FM150000 00000KT P6SM FEW250
  FM150500 18005KT P6SM FEW250
  FM151600 26003KT P6SM FEW200
NE 50 nm 564' KMRB KMRB 141727Z 1418/1518 25006KT P6SM FEW250
  FM142300 21005KT P6SM FEW250
  FM150300 17004KT P6SM FEW250
  FM151000 23005KT P6SM FEW200
  FM151400 28004KT P6SM FEW200
E 51 nm 312' KIAD KIAD 142102Z 1421/1524 23009KT P6SM FEW250
  FM142300 21005KT P6SM FEW250
  FM150300 18004KT P6SM FEW250
  FM151600 26005KT P6SM FEW250
E 56 nm 10' KNYG TAF KNYG 1321/1421 VRB06KT 9999 SKC QNH3005INS
  FM140600 VRB06KT 9999 SCT200 QNH2995INS LAST NO
  AMDS AFT 1321 NEXT 1509 AUTOMATED SENSOR METWATCH 1321 TIL 1511 T32/1321Z T22/1411Z
E 61 nm 73' KDAA TAF KDAA 121200Z 1212/1318 VRB05KT 9999 VCSH SCT030 BKN060 OVC100 QNH2996INS
  BECMG 1212/1213 03006KT 9000 -SHRA FEW015 BKN030 OVC070 QNH3000INS
  BECMG 1213/1214 04007KT 8000 -SHRA VCTS SCT015CB OVC030 QNH3011INS
  TEMPO 1214/1301 VRB12G20KT 4800 TSRA BR SCT008 OVC015CB
  BECMG 1302/1303 VRB06KT 9000 -RA OVC010 QNH3010INS
  BECMG 1306/1307 VRB05KT 4800 -RA BR OVC008 QNH3011INS
  BECMG 1312/1313 16007KT 8000 -SHRA VCTS SCT009 BKN015CB OVC030 QNH3012INS TX27/1220Z TN24/1310Z
W 64 nm 1987' KEKN TAF
  AMD KEKN 141918Z 1419/1518 26008G14KT P6SM SCT070
  FM150100 00000KT P6SM SKC
  FM150900 00000KT 3SM BR SCT002
  FM151200 23003KT P6SM SCT120
E 69 nm 14' KDCA KDCA 142102Z 1421/1524 21008G16KT P6SM VCTS SCT060CB SCT250
  FM142200 08008G16KT P6SM FEW200
  FM150500 17005KT P6SM FEW200
  FM151600 26005KT P6SM FEW200
E 77 nm 279' KADW TAF
  AMD KADW 141910Z 1419/1523 27012KT 9999 VCTS SCT050CB QNH2997INS
  TEMPO 1419/1421 29012G18KT 8000 -TSRA BKN050CB
  BECMG 1420/1421 22006KT 9999 NSW SCT050 QNH2994INS
  BECMG 1500/1501 17006KT 9999 FEW070 QNH2992INS
  BECMG 1506/1507 26006KT 9999 SCT060 SCT250 QNH2986INS
  BECMG 1518/1519 23012KT 9999 -SHRA VCTS BKN040CB QNH2983INS TX38/1419Z TN23/1509Z
S 87 nm 938' KLYH TAF KLYH 141720Z 1418/1518 26005KT P6SM SCT060
  FM142300 VRB02KT P6SM FEW250
NW 88 nm 1243' KMGW KMGW 141736Z 1418/1518 24006KT P6SM SCT060
  FM150300 20003KT P6SM BKN100
  FM151600 22009G18KT P6SM SCT100
NW 89 nm 1223' KCKB TAF KCKB 141720Z 1418/1518 26008KT P6SM FEW040
  FM150100 22002KT P6SM VCTS FEW060CB
  FM150900 20006KT P6SM SKC
  FM151600 24008G14KT P6SM FEW120
SE 89 nm 167' KRIC KRIC 141722Z 1418/1518 19008KT P6SM SCT060
  FM142300 22005KT P6SM SKC
E 90 nm 143' KBWI TAF
  AMD KBWI 142102Z 1421/1524 18009G15KT P6SM VCTS SCT060CB SCT250
  FM142300 20004KT P6SM FEW200
  FM150500 17004KT P6SM FEW250
  FM151600 25005KT P6SM FEW200
N 98 nm 1503' KAOO TAF
  AMD KAOO 142127Z 1421/1518 26005KT P6SM SCT080
  FM150400 00000KT P6SM BKN090
  FM151400 25008KT P6SM SCT050 BKN250

Shortcut to this page: http://wxbay.com.

Data may contain errors.